This is the latest recevied weather packets stored in our database for station/object WJ9H. If no packets are shown the sender has not sent any weather packets the latest 10 day(s).
| Time | Temp. | Humidity | Pressure | Rain* | Wind** | Luminosity | Snow |
|---|---|---|---|---|---|---|---|
| 1777934088 | 22.22° C | - | 998.3 hPa | 0 mm | - | - | - |
| 1777933777 | 22.22° C | - | 998.3 hPa | 0 mm | - | - | - |
| 1777933555 | 23.33° C | - | 998.3 hPa | 0 mm | - | - | - |
| 1777933178 | 23.33° C | - | 998.3 hPa | 0 mm | - | - | - |
| 1777932888 | 23.89° C | - | 998 hPa | 0 mm | - | - | - |
| 1777931755 | 24.44° C | - | 998 hPa | 0 mm | - | - | - |
| 1777931687 | 24.44° C | - | 998 hPa | 0 mm | - | - | - |
| 1777931160 | 10.56° C | - | 1003.4 hPa | 0 mm | - | - | - |
| 1777931156 | 11.11° C | - | 1003.4 hPa | 0 mm | - | - | - |
| 1777930487 | 24.44° C | - | 997.7 hPa | 0 mm | - | - | - |
| 1777929287 | 24.44° C | - | 997.3 hPa | 0 mm | - | - | - |
| 1777928087 | 25.56° C | - | 997.3 hPa | 0 mm | - | - | - |
| 1777926887 | 26.11° C | - | 997.7 hPa | 0 mm | - | - | - |
| 1777925689 | 24.44° C | - | 997.7 hPa | 0 mm | - | - | - |
| 1777924779 | 25° C | - | 998 hPa | 0 mm | - | - | - |
| 1777924488 | 25° C | - | 998 hPa | 0 mm | - | - | - |
| 1777923288 | 24.44° C | - | 998 hPa | 0 mm | - | - | - |
| 1777922978 | 24.44° C | - | 998 hPa | 0 mm | - | - | - |
| 1777922088 | 25° C | - | 998 hPa | 0 mm | - | - | - |
| 1777921178 | 25.56° C | - | 998 hPa | 0 mm | - | - | - |
| 1777920888 | 25° C | - | 998.3 hPa | 0 mm | - | - | - |
| 1777919687 | 24.44° C | - | 998.7 hPa | 0 mm | - | - | - |
| 1777918487 | 24.44° C | - | 998.7 hPa | 0 mm | - | - | - |
| 1777917287 | 23.89° C | - | 999 hPa | 0 mm | - | - | - |
| 1777916087 | 23.89° C | - | 999 hPa | 0 mm | - | - | - |
* Rain latest hour (hover to see other rain measurements)
** Current wind speed in m/s (hover to see current wind gust speed)